Time;durP1;ratioP1;P1;durP2;ratioP2;P2;SDS_P1;SDS_P2;PMS_P1;PMS_P2;Temp;Humidity;BMP_temperature;BMP_pressure;BME280_temperature;BME280_humidity;BME280_pressure;Samples;Min_cycle;Max_cycle;Signal;HPM_P1;HPM_P2
2022/12/04 00:00:27;;;;;;;30.30;12.03;;;;;;;-0.09;91.75;102327.47;123424;1102;104232;-79
2022/12/04 00:03:18;;;;;;;28.63;11.43;;;;;;;-0.11;91.32;102326.39;123646;1102;104412;-79
2022/12/04 00:05:49;;;;;;;32.10;11.30;;;;;;;-0.10;91.97;102327.30;123629;1102;104387;-79
2022/12/04 00:08:20;;;;;;;30.37;12.17;;;;;;;-0.06;92.10;102330.38;123525;1102;104290;-79
2022/12/04 00:10:51;;;;;;;29.33;12.23;;;;;;;-0.04;91.80;102327.95;123470;1102;104280;-80
2022/12/04 00:13:22;;;;;;;29.57;11.97;;;;;;;-0.04;92.09;102330.54;123654;1102;105553;-79
2022/12/04 00:15:53;;;;;;;28.40;12.00;;;;;;;-0.05;91.78;102329.64;123532;1102;104278;-79
2022/12/04 00:18:24;;;;;;;27.93;11.60;;;;;;;-0.03;91.79;102334.97;123672;1102;102198;-79
2022/12/04 00:20:56;;;;;;;29.57;12.63;;;;;;;-0.03;91.17;102329.80;123536;1102;104300;-79
2022/12/04 00:23:27;;;;;;;27.15;11.55;;;;;;;-0.04;91.38;102334.02;123623;1102;104228;-79
2022/12/04 00:26:02;;;;;;;29.27;12.30;;;;;;;-0.02;91.36;102334.19;123525;1102;104261;-79
2022/12/04 00:28:34;;;;;;;29.70;11.90;;;;;;;-0.01;91.45;102329.19;123679;1102;104231;-79
2022/12/04 00:31:09;;;;;;;29.50;11.30;;;;;;;0.01;91.36;102337.10;123581;1101;104419;-79
2022/12/04 00:33:40;;;;;;;27.83;10.70;;;;;;;0.01;91.76;102331.94;123606;1102;104335;-79
2022/12/04 00:36:14;;;;;;;28.40;11.77;;;;;;;0.02;91.90;102333.78;123635;1102;104380;-79
2022/12/04 00:38:45;;;;;;;31.17;12.18;;;;;;;0.04;91.46;102334.84;123568;1102;104743;-80
2022/12/04 00:41:18;;;;;;;30.50;11.07;;;;;;;0.03;91.68;102333.00;123639;1102;104377;-79
2022/12/04 00:43:49;;;;;;;29.00;11.00;;;;;;;0.02;90.88;102333.78;123539;1102;104402;-80
2022/12/04 00:46:20;;;;;;;27.50;10.87;;;;;;;0.01;91.25;102325.88;123546;1102;104370;-80
2022/12/04 00:48:52;;;;;;;28.97;11.10;;;;;;;-0.02;90.91;102327.39;123579;1102;104296;-79
2022/12/04 00:51:25;;;;;;;23.53;10.03;;;;;;;-0.04;91.14;102327.95;123556;1102;104246;-79
2022/12/04 00:53:56;;;;;;;24.97;10.37;;;;;;;-0.04;91.27;102331.45;123660;1102;104277;-79
2022/12/04 00:56:28;;;;;;;25.63;9.83;;;;;;;-0.03;91.56;102333.29;123679;1102;104389;-79
2022/12/04 00:59:01;;;;;;;23.95;9.45;;;;;;;-0.02;90.79;102340.29;123662;1102;104338;-80
2022/12/04 01:01:32;;;;;;;26.60;9.97;;;;;;;-0.03;90.72;102335.87;123605;1102;104335;-79
2022/12/04 01:04:03;;;;;;;25.13;10.00;;;;;;;-0.08;89.75;102336.11;123537;1103;104255;-79
2022/12/04 01:06:35;;;;;;;26.47;11.27;;;;;;;-0.09;90.37;102331.72;123683;1102;104201;-80
2022/12/04 01:09:07;;;;;;;23.83;9.60;;;;;;;-0.11;90.13;102336.72;123655;1102;104910;-79
2022/12/04 01:11:38;;;;;;;26.60;10.00;;;;;;;-0.12;90.15;102332.30;123583;1102;104364;-80
2022/12/04 01:14:09;;;;;;;24.60;10.90;;;;;;;-0.12;91.59;102336.55;123598;1102;104350;-79
2022/12/04 01:16:41;;;;;;;25.47;10.20;;;;;;;-0.11;90.78;102328.04;123521;1102;104233;-79
2022/12/04 01:19:13;;;;;;;25.57;10.13;;;;;;;-0.09;90.74;102329.14;123525;1102;104271;-79
2022/12/04 01:21:44;;;;;;;26.30;10.53;;;;;;;-0.06;90.94;102322.63;123648;1102;104232;-79
2022/12/04 01:24:15;;;;;;;25.95;9.75;;;;;;;-0.03;91.09;102322.06;123584;1102;104402;-79
2022/12/04 01:26:46;;;;;;;24.75;10.10;;;;;;;-0.03;91.18;102322.96;123646;1102;104402;-79
2022/12/04 01:29:17;;;;;;;26.13;10.43;;;;;;;0.00;91.00;102324.97;123557;1102;104277;-79
2022/12/04 01:31:48;;;;;;;24.40;9.97;;;;;;;0.02;91.25;102322.52;123551;1102;104306;-79
2022/12/04 01:34:19;;;;;;;23.80;9.90;;;;;;;-0.01;90.67;102331.77;123612;1102;104229;-80
2022/12/04 01:36:50;;;;;;;26.60;9.97;;;;;;;-0.03;90.75;102328.13;123556;1102;104357;-79
2022/12/04 01:39:21;;;;;;;25.13;9.20;;;;;;;-0.05;90.65;102321.89;123489;1102;104357;-78
2022/12/04 01:41:53;;;;;;;21.35;9.10;;;;;;;-0.04;90.44;102320.22;123613;1102;104251;-79
2022/12/04 01:44:26;;;;;;;22.60;9.20;;;;;;;-0.05;90.89;102313.21;123627;1102;104333;-79
2022/12/04 01:46:58;;;;;;;23.40;9.40;;;;;;;-0.08;90.42;102307.72;123748;1102;104280;-79
2022/12/04 01:49:34;;;;;;;22.17;9.53;;;;;;;-0.08;91.21;102316.41;123529;1102;104203;-79
2022/12/04 01:52:09;;;;;;;22.27;9.10;;;;;;;-0.08;90.70;102326.72;123656;1102;104354;-79
2022/12/04 01:54:44;;;;;;;21.37;9.63;;;;;;;-0.11;90.17;102321.23;123585;1102;104293;-79
2022/12/04 01:57:17;;;;;;;24.17;9.37;;;;;;;-0.13;90.71;102324.39;123666;1102;104274;-79
2022/12/04 01:59:53;;;;;;;27.75;10.10;;;;;;;-0.16;89.91;102324.05;123631;1102;104287;-79
2022/12/04 02:02:27;;;;;;;24.63;10.13;;;;;;;-0.15;90.79;102324.22;123546;1102;104278;-79
2022/12/04 02:05:00;;;;;;;27.50;10.67;;;;;;;-0.15;90.29;102324.22;123602;1102;104254;-79
2022/12/04 02:07:31;;;;;;;29.33;10.33;;;;;;;-0.14;90.36;102326.06;123676;1102;104309;-79
2022/12/04 02:10:05;;;;;;;24.30;10.10;;;;;;;-0.15;90.63;102329.38;123402;1102;104456;-79
2022/12/04 02:12:41;;;;;;;28.62;11.18;;;;;;;-0.13;90.61;102330.45;123693;1102;104281;-79
2022/12/04 02:15:22;;;;;;;23.60;9.73;;;;;;;-0.12;90.12;102337.45;123624;1102;104414;-79
2022/12/04 02:18:03;;;;;;;25.10;10.97;;;;;;;-0.14;90.35;102327.70;123704;1102;104260;-79
2022/12/04 02:20:42;;;;;;;23.95;9.35;;;;;;;-0.14;90.88;102326.06;123597;1102;104252;-79
2022/12/04 02:23:25;;;;;;;29.33;10.33;;;;;;;-0.14;90.75;102320.91;123657;1102;104255;-79
2022/12/04 02:26:07;;;;;;;30.43;10.83;;;;;;;-0.17;89.92;102330.89;123671;1102;104353;-79
2022/12/04 02:28:46;;;;;;;24.07;9.60;;;;;;;-0.22;89.84;102327.81;123559;1102;104233;-79
2022/12/04 02:31:22;;;;;;;24.83;10.17;;;;;;;-0.24;90.40;102330.97;123639;1102;104232;-80
2022/12/04 02:33:59;;;;;;;26.83;10.47;;;;;;;-0.23;90.79;102335.39;123610;1102;104273;-79
2022/12/04 02:36:33;;;;;;;26.50;10.40;;;;;;;-0.22;90.19;102337.20;123626;1102;104275;-79
2022/12/04 02:39:10;;;;;;;26.35;10.80;;;;;;;-0.23;90.59;102341.45;123615;1102;104188;-79
2022/12/04 02:41:44;;;;;;;26.90;10.43;;;;;;;-0.21;90.77;102339.04;123571;1102;104287;-79
2022/12/04 02:44:20;;;;;;;25.17;10.07;;;;;;;-0.20;90.53;102336.62;123691;1102;104248;-79
2022/12/04 02:46:57;;;;;;;28.67;10.83;;;;;;;-0.21;89.88;102336.46;123624;1102;111869;-80
2022/12/04 02:49:32;;;;;;;26.67;11.37;;;;;;;-0.22;89.98;102337.20;123656;1102;104252;-79
2022/12/04 02:52:08;;;;;;;23.23;10.07;;;;;;;-0.23;90.34;102337.97;123716;1102;104342;-79
2022/12/04 02:54:42;;;;;;;27.27;10.60;;;;;;;-0.24;90.10;102346.45;123593;1102;104381;-78
2022/12/04 02:57:19;;;;;;;25.37;9.97;;;;;;;-0.28;89.50;102341.69;123716;1102;104351;-79
2022/12/04 02:59:53;;;;;;;31.23;10.97;;;;;;;-0.30;90.14;102332.88;123768;1102;104229;-79
2022/12/04 03:02:27;;;;;;;;;;;;;;;-0.32;88.96;102336.97;123655;1102;104251;-79
2022/12/04 03:05:00;;;;;;;26.10;10.27;;;;;;;-0.38;89.41;102329.47;123719;1101;104642;-79
2022/12/04 03:07:36;;;;;;;24.43;10.32;;;;;;;-0.39;89.65;102336.30;123701;1102;107069;-79
2022/12/04 03:10:13;;;;;;;29.23;10.87;;;;;;;-0.40;89.82;102336.14;123647;1102;104281;-79
2022/12/04 03:12:50;;;;;;;24.20;10.80;;;;;;;-0.40;89.63;102339.63;123635;1102;104248;-80
2022/12/04 03:15:26;;;;;;;29.33;10.93;;;;;;;-0.38;89.85;102343.27;123722;1102;104233;-79
2022/12/04 03:18:01;;;;;;;25.77;10.70;;;;;;;-0.35;90.39;102331.48;123610;1102;104255;-79
2022/12/04 03:20:36;;;;;;;31.30;10.90;;;;;;;-0.35;89.86;102334.96;123700;1102;104736;-80
2022/12/04 03:23:14;;;;;;;28.27;10.97;;;;;;;-0.36;89.95;102346.02;123609;1102;104359;-80
2022/12/04 03:25:54;;;;;;;23.67;10.07;;;;;;;-0.38;89.74;102340.69;123671;1102;104386;-80
2022/12/04 03:28:33;;;;;;;27.20;11.00;;;;;;;-0.38;89.45;102339.78;123787;1102;104252;-79
2022/12/04 03:31:07;;;;;;;34.63;10.80;;;;;;;-0.39;89.27;102336.30;123616;1102;104210;-79
2022/12/04 03:33:42;;;;;;;29.30;11.17;;;;;;;-0.39;90.05;102337.95;123636;1101;104233;-79
2022/12/04 03:36:20;;;;;;;28.77;11.73;;;;;;;-0.39;89.76;102337.95;123608;1102;104360;-80
2022/12/04 03:38:58;;;;;;;29.57;11.23;;;;;;;-0.37;90.01;102341.63;123794;1102;104367;-80
2022/12/04 03:41:38;;;;;;;26.33;10.97;;;;;;;-0.40;89.54;102342.20;123813;1102;104238;-79
2022/12/04 03:44:14;;;;;;;27.10;10.43;;;;;;;-0.43;89.18;102341.86;123544;1102;104572;-79
2022/12/04 03:46:52;;;;;;;25.03;10.90;;;;;;;-0.42;89.91;102338.55;123647;1102;104373;-79
2022/12/04 03:49:28;;;;;;;23.73;10.37;;;;;;;-0.43;89.26;102340.96;123470;1102;104335;-79
2022/12/04 03:52:04;;;;;;;27.03;10.93;;;;;;;-0.43;88.90;102340.96;123522;1102;104290;-80
2022/12/04 03:54:40;;;;;;;25.83;11.13;;;;;;;-0.46;88.62;102340.62;123671;1101;104185;-80
2022/12/04 03:57:16;;;;;;;28.17;11.53;;;;;;;-0.47;89.21;102350.00;123548;1102;104283;-79
2022/12/04 03:59:54;;;;;;;29.50;11.30;;;;;;;-0.48;89.36;102343.03;123642;1102;104357;-79
2022/12/04 04:02:30;;;;;;;27.70;10.75;;;;;;;-0.49;89.55;102341.19;123577;1102;104354;-79
2022/12/04 04:05:05;;;;;;;28.20;11.50;;;;;;;-0.48;89.00;102337.88;123618;1102;104392;-79
2022/12/04 04:07:42;;;;;;;26.93;11.40;;;;;;;-0.48;88.90;102334.36;123775;1102;104278;-80
2022/12/04 04:10:17;;;;;;;28.13;11.17;;;;;;;-0.50;89.70;102333.29;123647;1102;104175;-79
2022/12/04 04:24:31;;;;;;;24.10;10.40;;;;;;;-0.60;89.22;102359.73;123090;1105;104483;-77
2022/12/04 04:27:03;;;;;;;24.00;10.47;;;;;;;-0.57;89.38;102355.83;123521;1102;104283;-77
2022/12/04 04:29:35;;;;;;;24.00;10.70;;;;;;;-0.57;89.02;102353.25;123706;1102;104354;-77
2022/12/04 04:32:11;;;;;;;31.10;10.90;;;;;;;-0.57;89.46;102362.66;123600;1102;104366;-78
2022/12/04 04:34:53;;;;;;;29.67;11.20;;;;;;;-0.58;89.11;102358.23;123625;1102;104284;-78
2022/12/04 04:37:32;;;;;;;27.50;11.10;;;;;;;-0.56;89.39;102364.50;123544;1102;104384;-77
2022/12/04 04:40:12;;;;;;;26.60;11.70;;;;;;;-0.56;89.57;102365.41;123572;1102;104241;-79
2022/12/04 04:42:49;;;;;;;28.47;12.17;;;;;;;-0.57;89.00;102370.39;123613;1102;104293;-78
2022/12/04 04:45:24;;;;;;;30.07;11.73;;;;;;;-0.57;89.34;102371.30;123661;1102;104229;-79
2022/12/04 04:48:00;;;;;;;25.37;11.57;;;;;;;-0.57;89.09;102367.81;123638;1102;104252;-79
2022/12/04 04:50:32;;;;;;;26.40;11.57;;;;;;;-0.58;89.54;102369.48;123705;1102;104666;-79
2022/12/04 04:53:07;;;;;;;30.90;12.90;;;;;;;-0.57;89.07;102373.88;123579;1101;104232;-79
2022/12/04 04:55:39;;;;;;;28.00;11.15;;;;;;;-0.56;89.71;102372.23;123685;1102;104207;-78
2022/12/04 04:58:12;;;;;;;26.73;11.20;;;;;;;-0.56;89.33;102365.41;123737;1102;104280;-79
2022/12/04 05:00:50;;;;;;;28.77;11.47;;;;;;;-0.54;89.48;102363.00;123803;1102;104357;-79
2022/12/04 05:03:21;;;;;;;26.80;10.97;;;;;;;-0.51;89.40;102368.48;123584;1102;104405;-79
2022/12/04 05:05:53;;;;;;;27.03;10.77;;;;;;;-0.51;89.29;102371.06;123607;1102;104852;-78
2022/12/04 05:08:24;;;;;;;27.23;11.77;;;;;;;-0.50;89.48;102375.45;123624;1102;104249;-79
2022/12/04 05:10:55;;;;;;;29.80;12.00;;;;;;;-0.49;88.57;102372.14;123666;1102;104290;-79
2022/12/04 05:13:27;;;;;;;25.20;11.77;;;;;;;-0.50;89.08;102371.97;123672;1102;104277;-79
2022/12/04 05:16:02;;;;;;;26.85;11.20;;;;;;;-0.53;88.95;102374.22;123634;1102;104360;-79
2022/12/04 05:18:35;;;;;;;28.73;11.60;;;;;;;-0.57;89.46;102384.19;123676;1102;104411;-78
2022/12/04 05:21:09;;;;;;;23.25;10.75;;;;;;;-0.57;89.13;102388.44;123678;1102;104280;-79
2022/12/04 05:23:40;;;;;;;27.37;11.37;;;;;;;-0.57;89.21;102391.02;123708;1102;104225;-79
2022/12/04 05:26:12;;;;;;;30.83;12.27;;;;;;;-0.57;88.77;102384.19;123706;1102;104261;-79
2022/12/04 05:28:43;;;;;;;28.17;10.53;;;;;;;-0.55;89.26;102390.45;123648;1102;104283;-78
2022/12/04 05:31:14;;;;;;;25.93;10.87;;;;;;;-0.53;89.23;102393.20;123569;1102;104520;-79
2022/12/04 05:33:45;;;;;;;27.73;12.53;;;;;;;-0.53;88.81;102405.16;123654;1102;104249;-78
2022/12/04 05:36:16;;;;;;;32.23;12.00;;;;;;;-0.52;89.49;102396.69;123634;1101;104255;-78
2022/12/04 05:38:47;;;;;;;26.17;11.23;;;;;;;-0.51;88.57;102389.13;123629;1102;104354;-79
2022/12/04 05:41:18;;;;;;;24.40;10.43;;;;;;;-0.53;89.33;102395.78;123668;1102;104309;-79
2022/12/04 05:43:49;;;;;;;30.40;11.90;;;;;;;-0.58;88.61;102400.43;123571;1102;104265;-78
2022/12/04 05:46:21;;;;;;;30.05;12.45;;;;;;;-0.58;88.46;102402.08;123602;1102;104265;-78
2022/12/04 05:48:52;;;;;;;31.63;12.57;;;;;;;-0.61;89.29;102399.16;123615;1102;104303;-79
2022/12/04 05:51:23;;;;;;;33.23;11.90;;;;;;;-0.62;89.54;102410.23;123698;1101;104277;-79
2022/12/04 05:53:54;;;;;;;26.83;12.50;;;;;;;-0.64;88.43;102412.64;123594;1102;104261;-78
2022/12/04 05:56:25;;;;;;;30.30;13.20;;;;;;;-0.64;89.09;102427.17;123590;1102;104357;-80
2022/12/04 05:58:56;;;;;;;26.37;11.77;;;;;;;-0.66;89.28;102423.52;123586;1102;104283;-79
2022/12/04 06:01:27;;;;;;;27.50;12.13;;;;;;;-0.67;89.54;102420.03;123649;1102;104252;-79
2022/12/04 06:03:58;;;;;;;27.47;12.53;;;;;;;-0.65;89.51;102423.69;123639;1102;104294;-78
2022/12/04 06:06:30;;;;;;;26.73;11.20;;;;;;;-0.63;88.72;102424.77;123685;1102;104382;-79
2022/12/04 06:09:02;;;;;;;28.23;12.47;;;;;;;-0.67;89.24;102426.83;123699;1102;104235;-79
2022/12/04 06:11:35;;;;;;;24.03;11.40;;;;;;;-0.70;88.65;102421.34;123805;1102;104296;-80
2022/12/04 06:14:08;;;;;;;31.03;13.17;;;;;;;-0.70;88.52;102430.01;123670;1102;104737;-79
2022/12/04 06:16:41;;;;;;;21.13;10.33;;;;;;;-0.70;89.29;102422.27;123957;1102;104267;-78
2022/12/04 06:19:14;;;;;;;31.50;12.90;;;;;;;-0.68;88.77;102428.51;123598;1102;104363;-79
2022/12/04 06:21:50;;;;;;;30.82;14.70;;;;;;;-0.67;89.39;102426.83;123599;1102;104280;-78
2022/12/04 06:24:23;;;;;;;32.60;14.77;;;;;;;-0.68;89.29;102422.45;123726;1102;104274;-78
2022/12/04 06:26:57;;;;;;;31.87;14.23;;;;;;;-0.71;88.75;102415.27;123672;1102;104284;-79
2022/12/04 06:29:28;;;;;;;29.57;15.03;;;;;;;-0.71;88.97;102424.68;123680;1102;104214;-78
2022/12/04 06:32:00;;;;;;;32.83;15.07;;;;;;;-0.75;88.37;102431.13;123700;1102;104280;-79
2022/12/04 06:34:31;;;;;;;32.20;14.37;;;;;;;-0.77;88.67;102430.96;123779;1102;104328;-79
2022/12/04 06:37:02;;;;;;;28.13;13.77;;;;;;;-0.78;88.41;102428.21;123702;1102;104259;-79
2022/12/04 06:39:33;;;;;;;33.47;14.90;;;;;;;-0.76;88.71;102429.32;123704;1102;104274;-79
2022/12/04 06:42:04;;;;;;;29.97;14.67;;;;;;;-0.73;88.10;102432.24;123610;1102;104357;-79
2022/12/04 06:44:35;;;;;;;30.80;14.23;;;;;;;-0.73;88.54;102430.57;123622;1102;104418;-78
2022/12/04 06:47:06;;;;;;;30.10;14.05;;;;;;;-0.68;89.57;102422.45;123585;1102;104377;-78
2022/12/04 06:49:37;;;;;;;27.13;13.53;;;;;;;-0.64;89.14;102428.12;123706;1102;104176;-78
2022/12/04 06:52:09;;;;;;;28.23;14.40;;;;;;;-0.63;88.18;102429.02;123734;1102;104328;-79
2022/12/04 06:54:40;;;;;;;28.23;13.03;;;;;;;-0.63;89.22;102429.92;123799;1102;104325;-79
2022/12/04 06:57:11;;;;;;;28.93;12.80;;;;;;;-0.66;88.16;102424.42;123749;1102;104721;-79
2022/12/04 06:59:42;;;;;;;29.83;13.43;;;;;;;-0.68;88.88;102409.55;123645;1102;104203;-78
2022/12/04 07:02:13;;;;;;;29.47;13.93;;;;;;;-0.65;88.88;102413.37;123635;1101;104185;-78
2022/12/04 07:04:44;;;;;;;33.07;12.77;;;;;;;-0.64;88.40;102419.44;123806;1102;104313;-78
2022/12/04 07:07:16;;;;;;;30.53;12.97;;;;;;;-0.62;89.25;102412.81;123648;1102;104252;-78
2022/12/04 07:09:47;;;;;;;31.63;13.37;;;;;;;-0.62;88.80;102420.55;123708;1102;104233;-78
2022/12/04 07:12:18;;;;;;;29.20;13.80;;;;;;;-0.59;88.93;102428.62;123619;1102;107565;-78
2022/12/04 07:14:49;;;;;;;25.03;12.43;;;;;;;-0.55;89.13;102428.20;123708;1102;104222;-78
2022/12/04 07:17:20;;;;;;;26.70;12.73;;;;;;;-0.57;89.02;102424.55;123584;1102;104248;-78
2022/12/04 07:19:51;;;;;;;27.87;12.67;;;;;;;-0.56;88.40;102424.72;123583;1102;104348;-78
2022/12/04 07:22:22;;;;;;;28.93;12.57;;;;;;;-0.58;89.02;102426.22;123572;1102;104334;-79
2022/12/04 07:24:54;;;;;;;27.30;12.30;;;;;;;-0.57;89.33;102438.34;123586;1102;104197;-79
2022/12/04 07:27:25;;;;;;;30.17;13.17;;;;;;;-0.56;88.91;102436.70;123752;1102;104224;-78
2022/12/04 07:29:56;;;;;;;30.23;13.57;;;;;;;-0.56;88.74;102429.87;123770;1102;104293;-79
2022/12/04 07:32:27;;;;;;;30.80;12.90;;;;;;;-0.50;89.07;102432.20;123712;1102;104208;-78
2022/12/04 07:34:58;;;;;;;27.35;13.35;;;;;;;-0.47;88.79;102432.53;123770;1102;104383;-79
2022/12/04 07:37:29;;;;;;;28.43;13.23;;;;;;;-0.50;88.50;102441.61;123625;1102;104296;-78
2022/12/04 07:40:00;;;;;;;26.43;12.63;;;;;;;-0.47;88.86;102445.43;123716;1102;104271;-79
2022/12/04 07:42:31;;;;;;;28.20;13.13;;;;;;;-0.42;88.68;102441.72;123606;1102;104249;-79
2022/12/04 07:45:02;;;;;;;32.07;15.00;;;;;;;-0.43;88.57;102439.87;123691;1102;104278;-79
2022/12/04 07:47:34;;;;;;;26.93;13.17;;;;;;;-0.45;89.16;102449.12;123568;1102;104371;-79
2022/12/04 07:50:07;;;;;;;27.40;13.15;;;;;;;-0.46;89.06;102444.70;123663;1102;104355;-78
2022/12/04 07:52:39;;;;;;;31.00;14.60;;;;;;;-0.43;89.12;102451.88;123585;1102;105567;-79
2022/12/04 07:55:11;;;;;;;28.53;14.17;;;;;;;-0.41;88.94;102453.84;123614;1102;104329;-78
2022/12/04 07:57:42;;;;;;;28.07;14.90;;;;;;;-0.39;89.04;102461.76;123671;1102;104376;-79
2022/12/04 08:00:15;;;;;;;30.07;14.87;;;;;;;-0.38;89.18;102459.35;123673;1102;104248;-79
2022/12/04 08:02:47;;;;;;;32.53;15.00;;;;;;;-0.37;89.17;102460.29;123614;1102;104629;-79
2022/12/04 08:05:18;;;;;;;31.77;14.10;;;;;;;-0.34;89.50;102467.43;123624;1102;104211;-78
2022/12/04 08:07:49;;;;;;;31.90;14.53;;;;;;;-0.34;88.83;102462.27;123644;1102;104252;-79
2022/12/04 08:10:20;;;;;;;30.50;13.60;;;;;;;-0.35;88.86;102469.11;123681;1102;104226;-78
2022/12/04 08:12:51;;;;;;;30.03;13.97;;;;;;;-0.37;88.52;102466.36;123607;1102;104348;-79
2022/12/04 08:15:22;;;;;;;30.57;14.63;;;;;;;-0.34;89.47;102464.85;123523;1102;104291;-78
2022/12/04 08:17:53;;;;;;;30.57;14.27;;;;;;;-0.34;89.52;102459.69;123716;1102;104251;-78
2022/12/04 08:20:25;;;;;;;32.53;14.13;;;;;;;-0.33;89.05;102467.60;123670;1102;104402;-78
2022/12/04 08:22:56;;;;;;;32.27;14.73;;;;;;;-0.35;88.90;102469.11;123641;1102;104326;-79
2022/12/04 08:25:27;;;;;;;31.73;15.80;;;;;;;-0.41;88.75;102464.17;123579;1102;104395;-79
2022/12/04 08:27:58;;;;;;;29.63;14.87;;;;;;;-0.41;88.53;102466.75;123650;1102;104795;-79
2022/12/04 08:30:29;;;;;;;33.00;14.20;;;;;;;-0.40;88.83;102457.37;123656;1102;104277;-79
2022/12/04 08:33:01;;;;;;;31.93;15.27;;;;;;;-0.48;88.86;102458.16;123645;1102;104328;-79
2022/12/04 08:35:34;;;;;;;33.55;15.80;;;;;;;-0.50;88.06;102454.50;123610;1102;104280;-79
2022/12/04 08:38:05;;;;;;;31.27;16.03;;;;;;;-0.49;88.78;102453.77;123780;1102;104213;-79
2022/12/04 08:40:36;;;;;;;32.43;15.60;;;;;;;-0.47;88.47;102453.17;123547;1102;104412;-79
2022/12/04 08:43:07;;;;;;;29.33;14.10;;;;;;;-0.46;89.56;102449.85;123623;1102;104253;-79
2022/12/04 08:45:38;;;;;;;31.27;14.57;;;;;;;-0.46;89.34;102452.44;123606;1102;104226;-79
2022/12/04 08:48:09;;;;;;;31.27;14.07;;;;;;;-0.44;88.91;102450.93;123642;1102;104238;-79
2022/12/04 08:50:46;;;;;;;35.50;16.93;;;;;;;-0.48;88.43;102447.84;123633;1102;104232;-79
2022/12/04 08:53:17;;;;;;;31.00;14.65;;;;;;;-0.51;88.22;102451.02;123705;1102;104357;-79
2022/12/04 08:55:48;;;;;;;30.13;14.60;;;;;;;-0.49;88.39;102446.03;123632;1102;104296;-78
2022/12/04 08:58:19;;;;;;;34.50;14.50;;;;;;;-0.44;88.24;102443.19;123517;1102;104293;-79
2022/12/04 09:00:51;;;;;;;30.90;14.70;;;;;;;-0.40;89.62;102439.31;123638;1102;104328;-79
2022/12/04 09:03:22;;;;;;;29.07;14.57;;;;;;;-0.36;89.08;102436.30;123685;1102;104405;-79
2022/12/04 09:05:58;;;;;;;28.07;13.43;;;;;;;-0.31;88.34;102444.55;123634;1102;104297;-78
2022/12/04 09:08:29;;;;;;;29.27;14.33;;;;;;;-0.33;89.09;102446.96;123608;1102;104232;-79
2022/12/04 09:11:06;;;;;;;29.07;14.37;;;;;;;-0.32;88.46;102445.32;123638;1102;104770;-79
2022/12/04 09:13:38;;;;;;;30.70;14.45;;;;;;;-0.28;89.04;102443.25;123685;1102;104267;-79
2022/12/04 09:16:12;;;;;;;28.47;14.37;;;;;;;-0.25;88.90;102434.91;123610;1102;104869;-80
2022/12/04 09:18:43;;;;;;;28.98;13.50;;;;;;;-0.23;88.86;102434.34;123628;1102;104386;-78
2022/12/04 09:21:17;;;;;;;33.77;14.83;;;;;;;-0.22;88.92;102418.12;123613;1102;104312;-79
2022/12/04 09:23:48;;;;;;;32.17;13.90;;;;;;;-0.20;88.91;102426.94;123596;1102;104350;-79
2022/12/04 09:26:23;;;;;;;28.67;13.87;;;;;;;-0.17;88.70;102434.11;123621;1101;104286;-80
2022/12/04 09:28:55;;;;;;;28.97;13.47;;;;;;;-0.15;88.99;102426.53;123685;1102;104255;-79
2022/12/04 09:31:26;;;;;;;28.00;13.20;;;;;;;-0.15;88.15;102429.12;123820;1102;104289;-79
2022/12/04 09:34:00;;;;;;;28.67;13.20;;;;;;;-0.15;88.45;102427.44;123731;1102;104251;-79
2022/12/04 09:36:31;;;;;;;27.30;12.68;;;;;;;-0.16;88.38;102419.53;123724;1102;104252;-79
2022/12/04 09:39:03;;;;;;;32.60;14.57;;;;;;;-0.21;88.83;102416.45;123675;1102;104389;-79
2022/12/04 09:42:00;;;;;;;28.03;14.10;;;;;;;-0.22;88.73;102424.92;123705;1102;104255;-79
2022/12/04 09:44:35;;;;;;;30.60;14.17;;;;;;;-0.25;88.39;102412.63;123628;1102;105697;-79
2022/12/04 09:47:11;;;;;;;28.10;14.20;;;;;;;-0.24;88.62;102413.53;123649;1102;104396;-79
2022/12/04 09:49:46;;;;;;;27.77;13.93;;;;;;;-0.23;88.45;102408.54;123633;1102;104281;-78
2022/12/04 09:52:35;;;;;;;29.17;14.23;;;;;;;-0.20;89.23;102410.55;123694;1102;104383;-79
2022/12/04 09:55:13;;;;;;;30.20;14.73;;;;;;;-0.20;89.22;102397.65;123624;1102;104396;-79
2022/12/04 09:57:48;;;;;;;33.83;15.27;;;;;;;-0.23;88.50;102403.37;123623;1102;104322;-79
2022/12/04 10:00:21;;;;;;;29.13;14.20;;;;;;;-0.25;88.37;102394.56;123684;1102;104281;-79
2022/12/04 10:02:55;;;;;;;30.83;14.27;;;;;;;-0.25;88.64;102397.14;123710;1102;104251;-79
2022/12/04 10:05:42;;;;;;;32.93;14.90;;;;;;;-0.28;88.96;102406.19;123682;1102;105501;-79
2022/12/04 10:08:20;;;;;;;31.30;14.50;;;;;;;-0.35;87.95;102401.12;123646;1102;104380;-79
2022/12/04 10:11:04;;;;;;;32.07;14.03;;;;;;;-0.35;88.66;102407.19;123671;1102;104411;-79
2022/12/04 10:13:54;;;;;;;38.50;15.80;;;;;;;-0.43;88.25;102401.19;123529;1102;104255;-79
2022/12/04 10:16:32;;;;;;;30.87;15.13;;;;;;;-0.39;88.72;102399.85;123534;1102;110821;-78
2022/12/04 10:19:16;;;;;;;32.57;14.77;;;;;;;-0.36;88.52;102392.45;123744;1101;104328;-79
2022/12/04 10:21:57;;;;;;;32.07;15.27;;;;;;;-0.34;88.35;102384.88;123587;1102;104211;-79
2022/12/04 10:24:40;;;;;;;33.67;16.10;;;;;;;-0.33;88.46;102390.20;123634;1102;104456;-79
2022/12/04 10:27:17;;;;;;;34.07;15.23;;;;;;;-0.30;88.52;102402.53;123767;1102;104248;-79
2022/12/04 10:29:53;;;;;;;33.60;14.90;;;;;;;-0.31;88.83;102408.44;123583;1102;104277;-79
2022/12/04 10:32:30;;;;;;;35.97;16.27;;;;;;;-0.38;87.88;102410.34;123696;1102;102528;-78
2022/12/04 10:35:22;;;;;;;32.57;14.93;;;;;;;-0.39;88.27;102402.43;123668;1102;104310;-79
2022/12/04 10:37:57;;;;;;;32.90;15.50;;;;;;;-0.37;88.03;102400.96;123657;1102;104178;-78
2022/12/04 10:40:33;;;;;;;36.70;16.57;;;;;;;-0.38;88.45;102393.95;123669;1102;104265;-78
2022/12/04 10:43:14;;;;;;;33.17;16.13;;;;;;;-0.36;88.31;102387.29;123568;1102;104341;-79
2022/12/04 10:45:45;;;;;;;31.90;14.50;;;;;;;-0.36;88.38;102371.81;123788;1102;104287;-79
2022/12/04 10:48:24;;;;;;;33.63;15.03;;;;;;;-0.34;88.42;102382.30;123727;1102;104733;-81
2022/12/04 10:50:55;;;;;;;34.23;16.10;;;;;;;-0.42;88.15;102378.87;123570;1100;104300;-79
2022/12/04 10:53:31;;;;;;;35.90;15.53;;;;;;;-0.45;88.78;102378.54;123594;1102;104637;-78
2022/12/04 10:56:12;;;;;;;34.17;15.70;;;;;;;-0.51;88.08;102376.23;123809;1102;104302;-79
2022/12/04 10:58:44;;;;;;;38.80;15.90;;;;;;;-0.53;88.39;102382.89;123808;1102;104335;-79
2022/12/04 11:01:16;;;;;;;37.03;17.67;;;;;;;-0.56;88.64;102374.81;123675;1102;104335;-78
2022/12/04 11:03:55;;;;;;;33.80;15.20;;;;;;;-0.59;88.22;102366.74;123524;1102;104249;-78
2022/12/04 11:06:30;;;;;;;34.77;15.33;;;;;;;-0.59;88.15;102366.74;123509;1102;104287;-79
2022/12/04 11:09:02;;;;;;;35.43;15.60;;;;;;;-0.63;88.90;102361.98;123554;1102;104277;-79
2022/12/04 11:11:35;;;;;;;35.27;14.80;;;;;;;-0.63;88.55;102375.77;123648;1102;104309;-79
2022/12/04 11:14:13;;;;;;;31.83;15.17;;;;;;;-0.62;88.66;102369.89;123686;1102;104271;-79
2022/12/04 11:16:48;;;;;;;36.35;16.05;;;;;;;-0.63;88.62;102368.05;123674;1102;104394;-79
2022/12/04 11:19:25;;;;;;;33.87;15.40;;;;;;;-0.63;88.09;102364.56;123657;1102;104290;-79
2022/12/04 11:22:00;;;;;;;36.57;16.27;;;;;;;-0.67;88.88;102364.95;123618;1102;104313;-79
2022/12/04 11:24:35;;;;;;;33.30;15.40;;;;;;;-0.70;88.12;102367.19;123541;1102;104235;-80
2022/12/04 11:27:08;;;;;;;31.77;14.20;;;;;;;-0.70;88.25;102364.62;123630;1102;104358;-79
2022/12/04 11:29:45;;;;;;;35.30;15.85;;;;;;;-0.72;88.52;102359.29;123691;1102;104373;-78
2022/12/04 11:32:22;;;;;;;31.27;15.37;;;;;;;-0.70;88.36;102362.03;123772;1101;104261;-78
2022/12/04 11:34:55;;;;;;;29.73;15.10;;;;;;;-0.71;88.28;102357.65;123786;1102;104258;-78